Terminal Aerodrome Forecast
Issued by NWS Louisville, KY

Home | Current Version | Previous Version | Text Only | Print | Product List | Glossary On
Versions: 1 2 3 4 5 6 7 8 9 10 11 12 13 14 15 16 17 18 19 20 21
000
FTUS43 KLMK 270400 AAA
TAFSDF
TAF AMD
KSDF 270413Z 2704/2806 28005KT 6SM HZ SCT050
     FM270530 VRB03KT 6SM HZ VCSH BKN040
     FM270800 VRB03KT P6SM BKN040
     FM272000 27005KT 6SM HZ BKN050=

USA.gov is the U.S. government's official web portal to all federal, state and local government web resources and services.